createdAt,value
2023-02-15T00:00:48.682Z,102307.72
2023-02-15T00:03:22.693Z,102302.06
2023-02-15T00:05:57.396Z,102305.72
2023-02-15T00:08:30.198Z,102302.06
2023-02-15T00:11:07.830Z,102297.94
2023-02-15T00:13:46.780Z,102303.13
2023-02-15T00:16:19.025Z,102298.66
2023-02-15T00:18:48.562Z,102301.97
2023-02-15T00:21:18.262Z,102306.31
2023-02-15T00:23:51.076Z,102302.78
2023-02-15T00:26:27.208Z,102309.63
2023-02-15T00:28:59.929Z,102304.91
2023-02-15T00:31:32.734Z,102300.91
2023-02-15T00:34:27.882Z,102296.91
2023-02-15T00:37:00.193Z,102299.75
2023-02-15T00:39:30.970Z,102298.78
2023-02-15T00:42:02.100Z,102301.16
2023-02-15T00:44:29.902Z,102292.78
2023-02-15T00:47:01.404Z,102288.88
2023-02-15T00:49:29.096Z,102282.69
2023-02-15T00:52:02.839Z,102286.66
2023-02-15T00:54:35.840Z,102282.19
2023-02-15T00:57:06.146Z,102274.06
2023-02-15T00:59:42.341Z,102273.84
2023-02-15T01:02:12.181Z,102268.06
2023-02-15T01:04:45.019Z,102272.06
2023-02-15T01:07:15.669Z,102269.59
2023-02-15T01:09:45.913Z,102266.41
2023-02-15T01:12:19.962Z,102276.56
2023-02-15T01:14:49.087Z,102273.13
2023-02-15T01:17:21.981Z,102271.63
2023-02-15T01:19:52.636Z,102263.16
2023-02-15T01:22:22.778Z,102270.31
2023-02-15T01:24:51.423Z,102266.69
2023-02-15T01:27:24.399Z,102259.50
2023-02-15T01:29:54.187Z,102276.44
2023-02-15T01:32:27.743Z,102267.97
2023-02-15T01:35:04.983Z,102261.84
2023-02-15T01:37:34.212Z,102258.44
2023-02-15T01:40:09.072Z,102259.13
2023-02-15T01:42:42.338Z,102271.25
2023-02-15T01:45:22.668Z,102263.84
2023-02-15T01:48:22.557Z,102251.75
2023-02-15T01:50:58.026Z,102257.28
2023-02-15T01:53:40.380Z,102258.22
2023-02-15T01:56:15.070Z,102255.59
2023-02-15T01:58:44.396Z,102251.16
2023-02-15T02:01:18.599Z,102253.97
2023-02-15T02:03:48.979Z,102249.03
2023-02-15T02:06:22.072Z,102251.16
2023-02-15T02:08:56.953Z,102252.34
2023-02-15T02:11:30.067Z,102252.34
2023-02-15T02:14:01.198Z,102248.31
2023-02-15T02:16:42.384Z,102250.56
2023-02-15T02:19:51.913Z,102239.97
2023-02-15T02:22:28.780Z,102238.31
2023-02-15T02:25:13.217Z,102240.19
2023-02-15T02:27:50.504Z,102236.81
2023-02-15T02:30:47.389Z,102242.91
2023-02-15T02:33:40.773Z,102244.09
2023-02-15T02:36:18.253Z,102234.00
2023-02-15T02:39:10.741Z,102236.09
2023-02-15T02:41:42.011Z,102232.81
2023-02-15T02:44:50.686Z,102227.63
2023-02-15T02:47:37.674Z,102225.84
2023-02-15T02:50:13.533Z,102224.81
2023-02-15T02:52:52.692Z,102224.53
2023-02-15T02:55:32.622Z,102222.00
2023-02-15T02:58:18.789Z,102217.16
2023-02-15T03:00:55.573Z,102216.22
2023-02-15T03:03:31.345Z,102204.47
2023-02-15T03:06:07.644Z,102203.56
2023-02-15T03:08:43.858Z,102204.19
2023-02-15T03:11:15.835Z,102205.38
2023-02-15T03:13:50.127Z,102196.78
2023-02-15T03:16:28.990Z,102191.28
2023-02-15T03:19:18.748Z,102190.94
2023-02-15T03:22:04.842Z,102185.63
2023-02-15T03:24:52.309Z,102183.78
2023-02-15T03:27:29.481Z,102183.63
2023-02-15T03:30:02.005Z,102180.56
2023-02-15T03:32:41.169Z,102184.56
2023-02-15T03:35:14.049Z,102181.88
2023-02-15T03:37:49.752Z,102180.25
2023-02-15T03:40:38.425Z,102174.84
2023-02-15T03:43:31.288Z,102173.63
2023-02-15T03:46:11.905Z,102177.16
2023-02-15T03:48:47.791Z,102170.56
2023-02-15T03:51:36.413Z,102174.88
2023-02-15T03:54:13.742Z,102177.00
2023-02-15T03:57:04.269Z,102167.69
2023-02-15T03:59:55.884Z,102159.78
2023-02-15T04:02:38.345Z,102167.09
2023-02-15T04:05:13.840Z,102160.59
2023-02-15T04:07:41.586Z,102167.53
2023-02-15T04:10:30.590Z,102167.84
2023-02-15T04:13:03.774Z,102161.91
2023-02-15T04:15:49.791Z,102167.72
2023-02-15T04:18:19.264Z,102164.22
2023-02-15T04:21:11.246Z,102161.44
2023-02-15T04:24:00.116Z,102163.66
2023-02-15T04:26:30.779Z,102163.22
2023-02-15T04:29:03.860Z,102163.56
2023-02-15T04:31:37.641Z,102162.75
2023-02-15T04:34:11.152Z,102163.09
2023-02-15T04:36:44.365Z,102159.91
2023-02-15T04:39:17.518Z,102159.44
2023-02-15T04:41:46.406Z,102169.31
2023-02-15T04:44:16.946Z,102166.03
2023-02-15T04:46:46.875Z,102175.09
2023-02-15T04:49:19.211Z,102168.72
2023-02-15T04:51:49.013Z,102173.06
2023-02-15T04:54:16.543Z,102169.31
2023-02-15T04:56:52.181Z,102169.66
2023-02-15T04:59:27.260Z,102170.38
2023-02-15T05:01:57.354Z,102164.84
2023-02-15T05:04:38.722Z,102164.50
2023-02-15T05:07:09.464Z,102167.91
2023-02-15T05:09:37.404Z,102161.31
2023-02-15T05:12:13.391Z,102152.72
2023-02-15T05:14:43.537Z,102159.56
2023-02-15T05:17:16.794Z,102153.09
2023-02-15T05:19:44.659Z,102157.66
2023-02-15T05:22:17.265Z,102164.63
2023-02-15T05:25:03.538Z,102165.09
2023-02-15T05:27:52.854Z,102167.66
2023-02-15T05:30:25.642Z,102173.44
2023-02-15T05:32:53.543Z,102162.50
2023-02-15T05:35:26.749Z,102166.03
2023-02-15T05:37:57.096Z,102167.31
2023-02-15T05:40:30.595Z,102172.97
2023-02-15T05:42:58.780Z,102170.84
2023-02-15T05:45:29.431Z,102172.25
2023-02-15T05:48:08.771Z,102176.59
2023-02-15T05:50:43.326Z,102175.56
2023-02-15T05:53:14.011Z,102176.81
2023-02-15T05:55:47.511Z,102190.38
2023-02-15T05:58:18.179Z,102181.06
2023-02-15T06:00:46.470Z,102180.72
2023-02-15T06:03:14.723Z,102193.78
2023-02-15T06:05:47.879Z,102181.66
2023-02-15T06:08:21.632Z,102180.63
2023-02-15T06:10:54.130Z,102185.78
2023-02-15T06:13:25.409Z,102196.34
2023-02-15T06:15:55.835Z,102195.75
2023-02-15T06:18:23.153Z,102198.69
2023-02-15T06:20:55.885Z,102200.81
2023-02-15T06:23:31.877Z,102208.22
2023-02-15T06:26:03.673Z,102206.59
2023-02-15T06:28:34.720Z,102209.53
2023-02-15T06:31:09.222Z,102214.25
2023-02-15T06:33:39.862Z,102213.63
2023-02-15T06:36:10.097Z,102211.50
2023-02-15T06:38:40.325Z,102218.09
2023-02-15T06:41:10.329Z,102219.25
2023-02-15T06:43:48.638Z,102218.94
2023-02-15T06:46:28.896Z,102216.44
2023-02-15T06:49:02.075Z,102219.66
2023-02-15T06:51:32.936Z,102218.94
2023-02-15T06:54:01.054Z,102210.72
2023-02-15T06:56:33.835Z,102213.66
2023-02-15T06:59:02.592Z,102213.53
2023-02-15T07:01:32.557Z,102221.88
2023-02-15T07:04:10.901Z,102225.19
2023-02-15T07:06:44.151Z,102229.28
2023-02-15T07:09:13.994Z,102227.63
2023-02-15T07:12:03.384Z,102225.38
2023-02-15T07:14:35.877Z,102222.25
2023-02-15T07:17:18.311Z,102228.47
2023-02-15T07:19:58.723Z,102225.41
2023-02-15T07:22:30.735Z,102218.25
2023-02-15T07:25:03.868Z,102217.75
2023-02-15T07:27:35.519Z,102222.22
2023-02-15T07:30:03.910Z,102222.28
2023-02-15T07:32:34.502Z,102220.69
2023-02-15T07:35:09.953Z,102219.72
2023-02-15T07:37:43.091Z,102214.69
2023-02-15T07:40:11.126Z,102221.41
2023-02-15T07:42:41.730Z,102221.16
2023-02-15T07:45:15.197Z,102228.06
2023-02-15T07:47:45.417Z,102224.03
2023-02-15T07:50:13.204Z,102230.38
2023-02-15T07:52:41.461Z,102227.78
2023-02-15T07:55:22.490Z,102236.81
2023-02-15T07:57:51.972Z,102230.25
2023-02-15T08:00:26.647Z,102232.34
2023-02-15T08:03:16.600Z,102239.41
2023-02-15T08:05:48.098Z,102223.09
2023-02-15T08:08:32.807Z,102235.00
2023-02-15T08:11:24.537Z,102228.91
2023-02-15T08:14:11.101Z,102233.38
2023-02-15T08:16:50.495Z,102225.75
2023-02-15T08:19:29.618Z,102235.81
2023-02-15T08:22:01.651Z,102225.50
2023-02-15T08:24:34.270Z,102231.97
2023-02-15T08:27:06.226Z,102232.91
2023-02-15T08:29:40.132Z,102232.34
2023-02-15T08:32:11.603Z,102225.41
2023-02-15T08:34:41.434Z,102222.13
2023-02-15T08:37:12.234Z,102232.72
2023-02-15T08:39:42.788Z,102227.06
2023-02-15T08:42:13.228Z,102223.66
2023-02-15T08:44:46.022Z,102227.69
2023-02-15T08:47:22.100Z,102219.66
2023-02-15T08:49:52.924Z,102221.19
2023-02-15T08:52:26.562Z,102219.91
2023-02-15T08:54:56.250Z,102223.66
2023-02-15T08:57:31.865Z,102224.38
2023-02-15T09:00:03.906Z,102215.59
2023-02-15T09:02:34.762Z,102213.03
2023-02-15T09:05:02.797Z,102211.97
2023-02-15T09:07:32.924Z,102213.16
2023-02-15T09:10:03.457Z,102214.50
2023-02-15T09:12:41.773Z,102220.69
2023-02-15T09:15:14.779Z,102222.22
2023-02-15T09:17:47.662Z,102212.00
2023-02-15T09:20:17.669Z,102215.22
2023-02-15T09:22:50.598Z,102209.94
2023-02-15T09:25:21.175Z,102221.00
2023-02-15T09:27:51.600Z,102217.56
2023-02-15T09:30:22.116Z,102211.28
2023-02-15T09:32:54.386Z,102212.22
2023-02-15T09:35:24.579Z,102216.00
2023-02-15T09:37:52.906Z,102214.69
2023-02-15T09:40:36.501Z,102216.81
2023-02-15T09:43:40.809Z,102211.50
2023-02-15T09:46:31.516Z,102210.19
2023-02-15T09:49:12.292Z,102217.25
2023-02-15T09:52:23.235Z,102211.84
2023-02-15T09:55:23.091Z,102213.88
2023-02-15T09:58:08.915Z,102206.41
2023-02-15T10:00:36.565Z,102205.78
2023-02-15T10:03:12.916Z,102213.06
2023-02-15T10:05:48.318Z,102209.81
2023-02-15T10:08:43.790Z,102205.78
2023-02-15T10:11:41.992Z,102202.38
2023-02-15T10:14:38.987Z,102206.75
2023-02-15T10:17:41.669Z,102198.59
2023-02-15T10:20:45.874Z,102206.41
2023-02-15T10:23:40.135Z,102198.59
2023-02-15T10:26:15.057Z,102198.03
2023-02-15T10:29:06.472Z,102197.88
2023-02-15T10:32:03.404Z,102191.84
2023-02-15T10:34:45.247Z,102195.38
2023-02-15T10:37:44.572Z,102192.22
2023-02-15T10:40:57.588Z,102190.41
2023-02-15T10:43:46.738Z,102183.47
2023-02-15T10:46:45.703Z,102180.28
2023-02-15T10:49:31.548Z,102179.72
2023-02-15T10:52:17.038Z,102173.59
2023-02-15T10:54:57.812Z,102175.34
2023-02-15T10:57:39.947Z,102169.25
2023-02-15T11:00:40.786Z,102169.44
2023-02-15T11:03:24.164Z,102163.16
2023-02-15T11:06:06.152Z,102163.13
2023-02-15T11:09:00.941Z,102158.41
2023-02-15T11:11:41.459Z,102145.72
2023-02-15T11:14:40.077Z,102142.09
2023-02-15T11:17:15.701Z,102140.34
2023-02-15T11:20:32.614Z,102131.13
2023-02-15T11:23:03.308Z,102135.72
2023-02-15T11:25:37.781Z,102129.88
2023-02-15T11:28:33.230Z,102114.59
2023-02-15T11:31:13.262Z,102107.13
2023-02-15T11:33:44.805Z,102107.00
2023-02-15T11:36:27.356Z,102109.28
2023-02-15T11:39:04.716Z,102103.97
2023-02-15T11:41:40.158Z,102100.16
2023-02-15T11:44:31.157Z,102094.63
2023-02-15T11:47:03.937Z,102091.91
2023-02-15T11:49:33.986Z,102085.00
2023-02-15T11:52:06.210Z,102089.53
2023-02-15T11:54:46.564Z,102089.19
2023-02-15T11:57:29.335Z,102083.31
2023-02-15T12:00:08.622Z,102071.28
2023-02-15T12:02:45.089Z,102081.78
2023-02-15T12:05:25.103Z,102076.41
2023-02-15T12:08:04.946Z,102078.16
2023-02-15T12:10:37.305Z,102077.88
2023-02-15T12:13:16.833Z,102071.13
2023-02-15T12:15:59.509Z,102062.72
2023-02-15T12:18:37.982Z,102076.69
2023-02-15T12:21:27.715Z,102067.19
2023-02-15T12:24:04.787Z,102058.97
2023-02-15T12:26:41.219Z,102052.59
2023-02-15T12:29:17.586Z,102052.75
2023-02-15T12:31:51.327Z,102052.88
2023-02-15T12:34:24.291Z,102058.16
2023-02-15T12:37:03.436Z,102055.03
2023-02-15T12:39:36.716Z,102050.66
2023-02-15T12:42:20.604Z,102054.22
2023-02-15T12:45:05.015Z,102051.03
2023-02-15T12:47:41.285Z,102044.94
2023-02-15T12:50:34.542Z,102048.25
2023-02-15T12:53:17.190Z,102035.16
2023-02-15T12:55:56.206Z,102042.84
2023-02-15T12:58:34.744Z,102026.31
2023-02-15T13:01:18.750Z,102026.19
2023-02-15T13:04:13.854Z,102019.97
2023-02-15T13:06:55.918Z,102015.47
2023-02-15T13:09:32.393Z,102008.03
2023-02-15T13:12:20.039Z,102000.72
2023-02-15T13:14:52.802Z,101995.16
2023-02-15T13:17:30.340Z,101995.53
2023-02-15T13:20:36.472Z,101994.41
2023-02-15T13:23:28.838Z,101993.28
2023-02-15T13:26:10.687Z,101989.81
2023-02-15T13:29:19.730Z,101983.41
2023-02-15T13:31:47.702Z,101986.19
2023-02-15T13:34:30.740Z,101979.94
2023-02-15T13:37:33.594Z,101977.84
2023-02-15T13:40:21.971Z,101971.63
2023-02-15T13:42:52.744Z,101973.72
2023-02-15T13:45:48.779Z,101961.59
2023-02-15T13:48:50.761Z,101967.56
2023-02-15T13:51:29.755Z,101981.78
2023-02-15T13:54:24.541Z,101972.84
2023-02-15T13:57:14.295Z,101979.69
2023-02-15T14:00:02.689Z,101972.81
2023-02-15T14:03:02.607Z,101973.81
2023-02-15T14:06:01.699Z,101970.28
2023-02-15T14:08:47.183Z,101969.91
2023-02-15T14:11:18.116Z,101963.63
2023-02-15T14:13:54.217Z,101968.72
2023-02-15T14:16:30.178Z,101971.72
2023-02-15T14:19:00.802Z,101968.59
2023-02-15T14:21:57.452Z,101970.84
2023-02-15T14:24:37.655Z,101968.47
2023-02-15T14:27:19.591Z,101972.00
2023-02-15T14:30:14.917Z,101969.75
2023-02-15T14:32:49.763Z,101970.25
2023-02-15T14:35:25.995Z,101969.09
2023-02-15T14:38:41.432Z,101969.34
2023-02-15T14:41:21.868Z,101971.22
2023-02-15T14:44:33.398Z,101962.13
2023-02-15T14:47:07.066Z,101962.75
2023-02-15T14:49:44.213Z,101965.03
2023-02-15T14:52:13.261Z,101957.63
2023-02-15T14:54:41.037Z,101961.06
2023-02-15T14:57:17.656Z,101966.16
2023-02-15T14:59:45.454Z,101960.16
2023-02-15T15:02:49.742Z,101962.81
2023-02-15T15:05:36.891Z,101956.75
2023-02-15T15:08:22.484Z,101956.53
2023-02-15T15:10:50.324Z,101958.41
2023-02-15T15:13:33.454Z,101955.00
2023-02-15T15:17:04.249Z,101956.59
2023-02-15T15:19:52.413Z,101959.00
2023-02-15T15:22:26.584Z,101956.78
2023-02-15T15:25:21.281Z,101955.31
2023-02-15T15:27:57.284Z,101950.50
2023-02-15T15:30:25.320Z,101951.44
2023-02-15T15:33:51.938Z,101949.75
2023-02-15T15:36:36.336Z,101955.06
2023-02-15T15:39:37.160Z,101952.53
2023-02-15T15:42:13.944Z,101952.00
2023-02-15T15:45:19.779Z,101943.13
2023-02-15T15:48:07.521Z,101950.03
2023-02-15T15:50:41.633Z,101946.66
2023-02-15T15:53:24.782Z,101943.34
2023-02-15T15:56:12.115Z,101938.09
2023-02-15T15:58:57.374Z,101945.81
2023-02-15T16:01:35.490Z,101944.53
2023-02-15T16:04:12.916Z,101937.41
2023-02-15T16:06:41.418Z,101938.19
2023-02-15T16:09:20.039Z,101942.63
2023-02-15T16:12:01.417Z,101945.50
2023-02-15T16:14:41.770Z,101941.09
2023-02-15T16:17:20.991Z,101944.56
2023-02-15T16:19:51.937Z,101952.69
2023-02-15T16:22:33.278Z,101951.25
2023-02-15T16:25:04.233Z,101955.44
2023-02-15T16:27:45.510Z,101953.75
2023-02-15T16:30:22.207Z,101959.97
2023-02-15T16:33:18.139Z,101960.03
2023-02-15T16:35:58.543Z,101967.34
2023-02-15T16:38:50.303Z,101969.25
2023-02-15T16:41:34.503Z,101976.75
2023-02-15T16:44:21.480Z,101979.56
2023-02-15T16:46:53.362Z,101984.78
2023-02-15T16:49:24.642Z,101979.13
2023-02-15T16:52:02.211Z,101984.47
2023-02-15T16:54:32.501Z,101985.25
2023-02-15T16:57:03.203Z,101986.88
2023-02-15T16:59:45.370Z,101987.19
2023-02-15T17:02:43.428Z,102002.19
2023-02-15T17:05:21.906Z,102006.66
2023-02-15T17:08:08.839Z,102002.03
2023-02-15T17:10:46.755Z,102010.78
2023-02-15T17:13:18.410Z,102011.47
2023-02-15T17:16:09.142Z,102018.63
2023-02-15T17:18:49.426Z,102009.69
2023-02-15T17:21:27.470Z,102014.13
2023-02-15T17:24:01.367Z,102014.59
2023-02-15T17:26:33.585Z,102012.38
2023-02-15T17:29:29.847Z,102008.19
2023-02-15T17:32:03.469Z,102009.69
2023-02-15T17:35:09.584Z,102011.03
2023-02-15T17:37:49.443Z,102002.53
2023-02-15T17:40:26.878Z,102016.59
2023-02-15T17:42:58.439Z,102013.78
2023-02-15T17:45:42.623Z,102016.97
2023-02-15T17:48:21.630Z,102015.72
2023-02-15T17:50:52.056Z,102019.22
2023-02-15T17:53:23.694Z,102023.22
2023-02-15T17:55:57.979Z,102018.22
2023-02-15T17:58:33.552Z,102023.53
2023-02-15T18:01:36.201Z,102033.78
2023-02-15T18:04:23.997Z,102029.13
2023-02-15T18:07:13.280Z,102028.56
2023-02-15T18:10:05.120Z,102024.00
2023-02-15T18:12:38.161Z,102027.97
2023-02-15T18:15:07.218Z,102034.22
2023-02-15T18:17:39.500Z,102037.25
2023-02-15T18:20:18.647Z,102038.81
2023-02-15T18:22:52.317Z,102032.59
2023-02-15T18:25:25.652Z,102034.91
2023-02-15T18:27:56.502Z,102038.00
2023-02-15T18:30:26.674Z,102039.03
2023-02-15T18:32:58.423Z,102041.78
2023-02-15T18:35:30.930Z,102048.06
2023-02-15T18:38:04.150Z,102035.19
2023-02-15T18:40:34.962Z,102039.47
2023-02-15T18:43:02.777Z,102049.53
2023-02-15T18:45:37.408Z,102043.50
2023-02-15T18:48:10.039Z,102047.88
2023-02-15T18:50:42.340Z,102029.75
2023-02-15T18:53:21.365Z,102042.22
2023-02-15T18:55:50.981Z,102033.22
2023-02-15T18:58:23.803Z,102036.03
2023-02-15T19:00:55.028Z,102036.47
2023-02-15T19:03:25.136Z,102039.75
2023-02-15T19:05:53.581Z,102044.78
2023-02-15T19:08:26.105Z,102044.53
2023-02-15T19:11:01.812Z,102040.50
2023-02-15T19:13:36.256Z,102043.16
2023-02-15T19:16:06.381Z,102046.88
2023-02-15T19:18:36.029Z,102042.59
2023-02-15T19:21:06.414Z,102041.47
2023-02-15T19:23:34.038Z,102042.59
2023-02-15T19:26:02.341Z,102040.03
2023-02-15T19:28:33.690Z,102050.91
2023-02-15T19:31:03.543Z,102039.28
2023-02-15T19:33:31.203Z,102037.66
2023-02-15T19:36:01.610Z,102037.66
2023-02-15T19:38:33.811Z,102045.41
2023-02-15T19:41:06.279Z,102038.09
2023-02-15T19:43:41.770Z,102040.09
2023-02-15T19:46:20.015Z,102048.06
2023-02-15T19:48:55.786Z,102050.69
2023-02-15T19:51:26.668Z,102049.22
2023-02-15T19:53:54.341Z,102054.88
2023-02-15T19:56:24.787Z,102052.78
2023-02-15T19:58:52.544Z,102055.09
2023-02-15T20:01:25.579Z,102051.72
2023-02-15T20:03:53.635Z,102052.16
2023-02-15T20:06:21.748Z,102057.44
2023-02-15T20:08:51.811Z,102056.44
2023-02-15T20:11:24.275Z,102060.53
2023-02-15T20:13:54.920Z,102059.03
2023-02-15T20:16:27.516Z,102061.03
2023-02-15T20:18:57.303Z,102056.13
2023-02-15T20:21:29.950Z,102059.66
2023-02-15T20:24:00.346Z,102051.91
2023-02-15T20:26:33.125Z,102064.59
2023-02-15T20:29:01.123Z,102060.50
2023-02-15T20:32:01.663Z,102062.88
2023-02-15T20:34:31.915Z,102058.75
2023-02-15T20:37:05.055Z,102065.22
2023-02-15T20:39:34.918Z,102065.59
2023-02-15T20:42:02.858Z,102070.53
2023-02-15T20:44:35.263Z,102075.25
2023-02-15T20:47:05.964Z,102071.69
2023-02-15T20:49:38.220Z,102081.72
2023-02-15T20:52:20.839Z,102077.16
2023-02-15T20:54:50.919Z,102079.53
2023-02-15T20:57:21.012Z,102080.06
2023-02-15T20:59:56.418Z,102084.09
2023-02-15T21:02:26.926Z,102078.81
2023-02-15T21:04:55.716Z,102079.53
2023-02-15T21:07:34.309Z,102082.97
2023-02-15T21:10:04.164Z,102082.78
2023-02-15T21:12:34.164Z,102085.28
2023-02-15T21:15:01.962Z,102075.81
2023-02-15T21:17:34.749Z,102081.53
2023-02-15T21:20:02.278Z,102084.47
2023-02-15T21:22:32.023Z,102082.47
2023-02-15T21:25:00.955Z,102075.69
2023-02-15T21:27:29.972Z,102077.00
2023-02-15T21:29:58.761Z,102078.53
2023-02-15T21:32:31.172Z,102078.81
2023-02-15T21:35:01.767Z,102071.50
2023-02-15T21:37:39.819Z,102075.25
2023-02-15T21:40:28.927Z,102074.69
2023-02-15T21:43:18.685Z,102078.34
2023-02-15T21:46:09.483Z,102076.44
2023-02-15T21:48:37.445Z,102072.69
2023-02-15T21:51:47.805Z,102072.31
2023-02-15T21:54:19.629Z,102075.03
2023-02-15T21:56:54.797Z,102070.06
2023-02-15T21:59:26.606Z,102067.69
2023-02-15T22:02:00.202Z,102073.25
2023-02-15T22:04:30.454Z,102072.31
2023-02-15T22:07:01.200Z,102069.16
2023-02-15T22:09:30.966Z,102083.88
2023-02-15T22:11:58.634Z,102078.16
2023-02-15T22:14:37.283Z,102078.16
2023-02-15T22:17:16.144Z,102078.06
2023-02-15T22:19:45.520Z,102083.50
2023-02-15T22:22:14.954Z,102083.88
2023-02-15T22:24:43.645Z,102074.22
2023-02-15T22:27:26.380Z,102077.25
2023-02-15T22:29:57.470Z,102078.91
2023-02-15T22:32:27.625Z,102074.50
2023-02-15T22:34:59.300Z,102076.34
2023-02-15T22:37:29.300Z,102069.16
2023-02-15T22:39:59.508Z,102075.50
2023-02-15T22:42:28.388Z,102071.78
2023-02-15T22:44:58.024Z,102078.25
2023-02-15T22:47:32.200Z,102080.69
2023-02-15T22:50:00.019Z,102078.81
2023-02-15T22:52:32.580Z,102079.53
2023-02-15T22:55:03.149Z,102080.25
2023-02-15T22:57:32.587Z,102087.38
2023-02-15T23:00:01.299Z,102079.22
2023-02-15T23:02:28.998Z,102077.47
2023-02-15T23:05:07.471Z,102095.34
2023-02-15T23:07:35.121Z,102080.19
2023-02-15T23:10:05.193Z,102089.13
2023-02-15T23:12:52.807Z,102085.22
2023-02-15T23:15:20.297Z,102087.25
2023-02-15T23:17:48.743Z,102095.44
2023-02-15T23:20:16.439Z,102087.28
2023-02-15T23:22:52.120Z,102082.50
2023-02-15T23:25:25.223Z,102082.22
2023-02-15T23:28:03.145Z,102092.63
2023-02-15T23:30:31.174Z,102086.34
2023-02-15T23:32:58.913Z,102084.03
2023-02-15T23:35:28.820Z,102085.47
2023-02-15T23:37:59.526Z,102084.50
2023-02-15T23:40:46.380Z,102068.81
2023-02-15T23:43:21.493Z,102061.69
2023-02-15T23:45:54.039Z,102067.00
2023-02-15T23:48:34.592Z,102066.91
2023-02-15T23:51:05.574Z,102066.63
2023-02-15T23:53:36.558Z,102066.44
2023-02-15T23:56:04.654Z,102071.97
2023-02-15T23:58:38.772Z,102071.47
